EW8914 Weather Reports


Display with metric or nautical units.
time (UTC)temp
F
wind
direction
speed
MPH
gust
MPH
rain 1hr
in
rain 24hr
in
rain mn
in
humidity
%
barometer
mb
20191015011015 52 0.0 0.0 0.00 0.00 0.00 84 1018.3
20191015010016 52 0.0 0.0 0.00 0.00 0.00 83 1018.0
20191015005015 52 0.0 0.0 0.00 0.00 0.00 83 1017.8
20191015004015 53 0.0 0.0 0.00 0.00 0.00 82 1017.5
20191015003015 53 0.0 0.0 0.00 0.00 0.00 81 1017.5
20191015002015 54 0.0 0.0 0.00 0.00 0.00 79 1017.4
20191015001015 55 0.0 0.0 0.00 0.00 0.00 79 1017.2
20191015000015 55 0.0 0.0 0.00 0.00 0.00 80 1017.1
20191014235015 54 0.0 0.0 0.00 0.00 0.00 80 1017.1
20191014234015 55 0.0 0.0 0.00 0.00 0.00 80 1016.9
20191014233015 56 0.0 0.0 0.00 0.00 0.00 78 1016.8
20191014232015 57 0.0 0.0 0.00 0.00 0.00 75 1016.8
20191014231015 59 0.0 0.0 0.00 0.00 0.00 71 1016.5
20191014230015 60 0.0 0.0 0.00 0.00 0.00 69 1016.5
20191014225015 61 0.0 0.0 0.00 0.00 0.00 68 1016.5
20191014224015 62 0.0 0.0 0.00 0.00 0.00 65 1016.4
20191014223015 64 0.0 0.0 0.00 0.00 0.00 58 1016.2
20191014222015 65 0.0 0.0 0.00 0.00 0.00 53 1016.1
20191014221015 68 0.0 0.0 0.00 0.00 0.00 50 1016.1
20191014220015 70 0.0 0.0 0.00 0.00 0.00 42 1016.0
20191014215015 72 0.0 0.0 0.00 0.00 0.00 39 1016.0
20191014214015 73 0.0 0.0 0.00 0.00 0.00 38 1016.0
20191014213015 73 0.0 0.0 0.00 0.00 0.00 36 1015.8
20191014212015 73 0.0 0.0 0.00 0.00 0.00 37 1015.9
20191014211015 74 0.0 1.0 0.00 0.00 0.00 36 1015.8
20191014210015 74 0.0 2.0 0.00 0.00 0.00 37 1015.8
20191014205015 75 0.0 3.0 0.00 0.00 0.00 37 1015.8
20191014204015 74 0.0 0.0 0.00 0.00 0.00 36 1015.9
20191014203017 74 0.0 1.0 0.00 0.00 0.00 36 1015.9
20191014202017 75 0.0 1.0 0.00 0.00 0.00 37 1016.0
20191014201017 75 0 1.0 7.0 0.00 0.00 0.00 38 1016.0
20191014200015 75 0.0 4.0 0.00 0.00 0.00 37 1016.0
20191014195017 75 0.0 1.0 0.00 0.00 0.00 37 1016.1
20191014194017 75 0.0 2.0 0.00 0.00 0.00 35 1016.1
20191014193017 76 0.0 1.0 0.00 0.00 0.00 35 1016.1
20191014192017 75 0.0 1.0 0.00 0.00 0.00 34 1016.2
20191014191017 75 0.0 3.0 0.00 0.00 0.00 35 1016.2
20191014190018 75 0.0 0.0 0.00 0.00 0.00 35 1016.0
20191014185016 74 0.0 6.0 0.00 0.00 0.00 36 1016.2
20191014184017 74 0.0 0.0 0.00 0.00 0.00 35 1016.4
20191014183017 75 0.0 2.0 0.00 0.00 0.00 33 1016.7
20191014182016 74 0.0 3.0 0.00 0.00 0.00 36 1016.8
20191014181017 74 157 1.0 6.0 0.00 0.00 0.00 37 1016.9
20191014180017 74 0.0 6.0 0.00 0.00 0.00 34 1017.1
20191014175016 75 0.0 1.0 0.00 0.00 0.00 35 1017.2
20191014174017 74 0.0 6.0 0.00 0.00 0.00 36 1017.3
20191014173016 73 0 1.0 8.0 0.00 0.00 0.00 33 1017.6
20191014172017 74 0 2.0 8.0 0.00 0.00 0.00 35 1017.7
20191014171016 74 0.0 4.0 0.00 0.00 0.00 35 1018.0
20191014170016 73 0.0 2.0 0.00 0.00 0.00 36 1018.1
20191014165016 73 0.0 2.0 0.00 0.00 0.00 35 1018.1
20191014164016 72 0.0 2.0 0.00 0.00 0.00 45 1018.2
20191014163016 71 0.0 0.0 0.00 0.00 0.00 49 1018.4
20191014162016 71 0.0 0.0 0.00 0.00 0.00 50 1018.5
20191014161016 70 0.0 5.0 0.00 0.00 0.00 52 1018.6
20191014160016 69 0.0 5.0 0.00 0.00 0.00 55 1018.7
20191014155016 70 0 1.0 5.0 0.00 0.00 0.00 55 1018.7
20191014154016 70 0.0 0.0 0.00 0.00 0.00 45 1018.7
20191014153016 71 0.0 1.0 0.00 0.00 0.00 53 1018.8
20191014152016 70 0.0 0.0 0.00 0.00 0.00 49 1018.8
20191014151016 68 0.0 0.0 0.00 0.00 0.00 61 1018.8
20191014150016 66 0.0 0.0 0.00 0.00 0.00 63 1018.8
20191014145016 66 0.0 0.0 0.00 0.00 0.00 67 1018.9
20191014144016 64 0.0 0.0 0.00 0.00 0.00 67 1018.9
20191014143016 63 0.0 0.0 0.00 0.00 0.00 72 1019.0
20191014142016 61 0.0 0.0 0.00 0.00 0.00 76 1019.1
20191014141016 59 0.0 0.0 0.00 0.00 0.00 79 1019.1
20191014140016 57 0.0 0.0 0.00 0.00 0.00 81 1019.0
20191014135016 57 0.0 0.0 0.00 0.00 0.00 84 1018.9
20191014134016 55 0.0 0.0 0.00 0.00 0.00 85 1019.1
20191014133016 54 0.0 0.0 0.00 0.00 0.00 88 1019.0
20191014132016 53 0.0 0.0 0.00 0.00 0.00 90 1019.0
20191014131017 52 0.0 0.0 0.00 0.00 0.00 93 1019.0
20191014130016 50 0.0 0.0 0.00 0.00 0.00 95 1018.9
20191014125016 47 0.0 0.0 0.00 0.00 0.00 95 1018.6
20191014124016 46 0.0 0.0 0.00 0.00 0.00 95 1018.5
20191014123016 44 0.0 0.0 0.00 0.00 0.00 95 1018.4
20191014122016 42 0.0 0.0 0.00 0.00 0.00 94 1018.3
20191014121016 41 0.0 0.0 0.00 0.00 0.00 94 1018.0
20191014120016 40 0.0 0.0 0.00 0.00 0.00 94 1017.8
20191014115016 40 0.0 0.0 0.00 0.00 0.00 94 1017.8
20191014114016 39 0.0 0.0 0.00 0.00 0.00 94 1017.6
20191014113016 39 0.0 0.0 0.00 0.00 0.00 94 1017.5
20191014112016 39 0.0 0.0 0.00 0.00 0.00 94 1017.4
20191014111016 39 0.0 0.0 0.00 0.00 0.00 93 1017.4
20191014110016 40 0.0 0.0 0.00 0.00 0.00 93 1017.2
20191014105016 40 0.0 0.0 0.00 0.00 0.00 94 1017.0
20191014104016 40 0.0 0.0 0.00 0.00 0.00 94 1016.9
20191014103016 40 0.0 0.0 0.00 0.00 0.00 93 1016.9
20191014102016 40 0.0 0.0 0.00 0.00 0.00 93 1016.8
20191014101016 41 0.0 0.0 0.00 0.00 0.00 93 1016.6
20191014100016 41 0.0 0.0 0.00 0.00 0.00 93 1016.4
20191014095016 41 0.0 0.0 0.00 0.00 0.00 93 1016.3
20191014094016 41 0.0 0.0 0.00 0.00 0.00 93 1016.0
20191014093016 42 0.0 0.0 0.00 0.00 0.00 93 1016.0
20191014092016 42 0.0 0.0 0.00 0.00 0.00 93 1016.0
20191014091016 42 0.0 0.0 0.00 0.00 0.00 93 1015.9
20191014090015 42 0.0 0.0 0.00 0.00 0.00 93 1015.9
20191014085015 43 0.0 0.0 0.00 0.00 0.00 93 1015.9
20191014084016 43 0.0 0.0 0.00 0.00 0.00 93 1015.9
20191014083015 42 0.0 0.0 0.00 0.00 0.00 93 1015.8
20191014082016 42 0.0 0.0 0.00 0.00 0.00 93 1015.7
20191014081015 42 0.0 0.0 0.00 0.00 0.00 93 1015.9
20191014080015 42 0.0 0.0 0.00 0.00 0.00 93 1015.8
20191014075015 43 0.0 0.0 0.00 0.00 0.00 93 1015.7
20191014074016 43 0.0 0.0 0.00 0.00 0.00 93 1015.7
20191014073015 43 0.0 0.0 0.00 0.00 0.00 93 1015.8
20191014072016 43 0.0 0.0 0.00 0.00 0.00 93 1015.9
20191014071015 43 0.0 0.0 0.00 0.00 0.00 93 1016.0
20191014070015 43 0.0 0.0 0.00 0.00 0.00 93 1016.1
20191014065016 44 0.0 0.0 0.00 0.00 0.00 93 1016.2
20191014064015 44 0.0 0.0 0.00 0.00 0.00 93 1016.4
20191014063015 44 0.0 0.0 0.00 0.00 0.00 93 1016.3
20191014062015 44 0.0 0.0 0.00 0.00 0.00 93 1016.5
20191014061015 44 0.0 0.0 0.00 0.00 0.00 93 1016.5
20191014060015 44 0.0 0.0 0.00 0.00 0.00 93 1016.7
20191014055015 44 0.0 0.0 0.00 0.00 0.00 93 1016.9
20191014054015 44 0.0 0.0 0.00 0.00 0.00 93 1016.9
20191014053015 44 0.0 0.0 0.00 0.00 0.00 92 1016.9
20191014052015 44 0.0 0.0 0.00 0.00 0.00 92 1016.9
20191014051015 44 0.0 0.0 0.00 0.00 0.00 92 1017.0
20191014050015 45 0.0 0.0 0.00 0.00 0.00 92 1016.9
20191014045015 45 0.0 0.0 0.00 0.00 0.00 92 1017.1
20191014044015 45 0.0 0.0 0.00 0.00 0.00 92 1017.1
20191014043015 45 0.0 0.0 0.00 0.00 0.00 92 1017.1
20191014042015 45 0.0 0.0 0.00 0.00 0.00 92 1017.2
20191014041015 45 0.0 0.0 0.00 0.00 0.00 92 1017.2
20191014040015 45 0.0 0.0 0.00 0.00 0.00 92 1017.2
20191014035015 45 0.0 0.0 0.00 0.00 0.00 91 1017.3
20191014034016 46 0.0 0.0 0.00 0.00 0.00 91 1017.5
20191014033016 46 0.0 0.0 0.00 0.00 0.00 91 1017.5
20191014032016 46 0.0 0.0 0.00 0.00 0.00 91 1017.5
20191014031015 46 0.0 0.0 0.00 0.00 0.00 91 1017.5
20191014030016 46 0.0 0.0 0.00 0.00 0.00 90 1017.5
20191014025015 47 0.0 0.0 0.00 0.00 0.00 90 1017.3
20191014024015 47 0.0 0.0 0.00 0.00 0.00 90 1017.2
20191014023015 47 0.0 0.0 0.00 0.00 0.00 90 1017.3
20191014022015 48 0.0 0.0 0.00 0.00 0.00 89 1017.4
20191014021019 49 0.0 0.0 0.00 0.00 0.00 89 1017.5
20191014020015 49 0.0 0.0 0.00 0.00 0.00 89 1017.4
20191014015015 49 0.0 0.0 0.00 0.00 0.00 89 1017.4
20191014014015 50 0.0 0.0 0.00 0.00 0.00 89 1017.3
20191014013015 50 0.0 0.0 0.00 0.00 0.00 88 1017.3
20191014012015 50 0.0 0.0 0.00 0.00 0.00 88 1017.3